Time,TemperatureF,DewpointF,PressureIn,WindDirection,WindDirectionDegrees,WindSpeedMPH,WindSpeedGustMPH,Humidity,HourlyPrecipIn,Conditions,Clouds,dailyrainin,SolarRadiationWatts/m^2,SoftwareType,DateUTC
2013-03-05 00:02:00,23.0,19.0,-100.00,NE,47,1.0,3.0,86,0.00,,,0.07,0.000000,,2013-03-05 05:02:00,
2013-03-05 00:10:00,22.0,18.0,-100.00,SW,233,1.0,4.0,86,0.00,,,0.07,0.000000,,2013-03-05 05:10:00,
2013-03-05 00:32:00,22.0,18.0,-100.00,SW,233,1.0,4.0,86,0.00,,,0.07,0.000000,,2013-03-05 05:32:00,
2013-03-05 00:42:00,22.0,18.0,-100.00,SW,233,1.0,4.0,86,0.00,,,0.07,0.000000,,2013-03-05 05:42:00,
2013-03-05 00:52:00,22.0,18.0,-100.00,SW,233,1.0,4.0,86,0.00,,,0.07,0.000000,,2013-03-05 05:52:00,
2013-03-05 01:01:00,22.0,18.0,-100.00,SW,233,1.0,4.0,86,0.00,,,0.07,0.000000,,2013-03-05 06:01:00,
2013-03-05 01:10:00,22.0,18.0,-100.00,SSW,192,0.0,2.0,83,0.00,,,0.07,0.000000,,2013-03-05 06:10:00,
2013-03-05 01:32:00,22.0,18.0,-100.00,SSW,192,0.0,2.0,83,0.00,,,0.07,0.000000,,2013-03-05 06:32:00,
2013-03-05 01:42:00,22.0,18.0,-100.00,SSW,192,0.0,2.0,83,0.00,,,0.07,0.000000,,2013-03-05 06:42:00,
2013-03-05 01:52:00,22.0,18.0,-100.00,SSW,192,0.0,2.0,83,0.00,,,0.07,0.000000,,2013-03-05 06:52:00,
2013-03-05 02:01:00,22.0,18.0,-100.00,SSW,192,0.0,2.0,83,0.00,,,0.07,0.000000,,2013-03-05 07:01:00,
2013-03-05 02:10:00,22.0,18.0,-100.00,SSW,203,0.0,2.0,84,0.00,,,0.07,0.000000,,2013-03-05 07:10:00,
2013-03-05 02:32:00,22.0,18.0,-100.00,SSW,203,0.0,2.0,84,0.00,,,0.07,0.000000,,2013-03-05 07:32:00,
2013-03-05 02:42:00,22.0,18.0,-100.00,SSW,203,0.0,2.0,84,0.00,,,0.07,0.000000,,2013-03-05 07:42:00,
2013-03-05 02:52:00,22.0,18.0,-100.00,SSW,203,0.0,2.0,84,0.00,,,0.07,0.000000,,2013-03-05 07:52:00,
2013-03-05 03:02:00,22.0,18.0,-100.00,SSW,203,0.0,2.0,84,0.00,,,0.07,0.000000,,2013-03-05 08:02:00,
2013-03-05 03:10:00,23.0,19.0,-100.00,SW,227,0.0,2.0,85,0.00,,,0.07,0.000000,,2013-03-05 08:10:00,
2013-03-05 03:42:00,23.0,19.0,-100.00,SW,227,0.0,2.0,85,0.00,,,0.07,0.000000,,2013-03-05 08:42:00,
2013-03-05 03:52:00,23.0,19.0,-100.00,SW,227,0.0,2.0,85,0.00,,,0.07,0.000000,,2013-03-05 08:52:00,
2013-03-05 04:01:00,23.0,19.0,-100.00,SW,227,0.0,2.0,85,0.00,,,0.07,0.000000,,2013-03-05 09:01:00,
2013-03-05 04:10:00,22.0,19.0,-100.00,ENE,69,0.0,2.0,87,0.00,,,0.07,0.000000,,2013-03-05 09:10:00,
2013-03-05 04:32:00,22.0,19.0,-100.00,ENE,69,0.0,2.0,87,0.00,,,0.07,0.000000,,2013-03-05 09:32:00,
2013-03-05 04:43:00,22.0,19.0,-100.00,ENE,69,0.0,2.0,87,0.00,,,0.07,0.000000,,2013-03-05 09:43:00,
2013-03-05 04:52:00,22.0,19.0,-100.00,ENE,69,0.0,2.0,87,0.00,,,0.07,0.000000,,2013-03-05 09:52:00,
2013-03-05 05:01:00,22.0,19.0,-100.00,ENE,69,0.0,2.0,87,0.00,,,0.07,0.000000,,2013-03-05 10:01:00,
2013-03-05 05:10:00,23.0,20.0,-100.00,ENE,70,0.0,2.0,87,0.00,,,0.07,0.000000,,2013-03-05 10:10:00,
2013-03-05 05:32:00,23.0,20.0,-100.00,ENE,70,0.0,2.0,87,0.00,,,0.07,0.000000,,2013-03-05 10:32:00,
2013-03-05 05:42:00,23.0,20.0,-100.00,ENE,70,0.0,2.0,87,0.00,,,0.07,0.000000,,2013-03-05 10:42:00,
2013-03-05 05:52:00,23.0,20.0,-100.00,ENE,70,0.0,2.0,87,0.00,,,0.07,0.000000,,2013-03-05 10:52:00,
2013-03-05 06:02:00,23.0,20.0,-100.00,ENE,70,0.0,2.0,87,0.00,,,0.07,0.000000,,2013-03-05 11:02:00,
2013-03-05 06:10:00,23.0,20.0,-100.00,NNW,340,1.0,2.0,87,0.00,,,0.07,0.000000,,2013-03-05 11:10:00,
2013-03-05 06:32:00,23.0,20.0,-100.00,NNW,340,1.0,2.0,87,0.00,,,0.07,0.000000,,2013-03-05 11:32:00,
2013-03-05 06:42:00,23.0,20.0,-100.00,NNW,340,1.0,2.0,87,0.00,,,0.07,0.000000,,2013-03-05 11:42:00,
2013-03-05 06:52:00,23.0,20.0,-100.00,NNW,340,1.0,2.0,87,0.00,,,0.07,0.000000,,2013-03-05 11:52:00,
2013-03-05 07:02:00,23.0,20.0,-100.00,NNW,340,1.0,2.0,87,0.00,,,0.07,0.000000,,2013-03-05 12:02:00,
2013-03-05 07:10:00,23.0,19.0,-100.00,SE,144,0.0,2.0,86,0.00,,,0.07,1.000000,,2013-03-05 12:10:00,
2013-03-05 07:32:00,23.0,19.0,-100.00,SE,144,0.0,2.0,86,0.00,,,0.07,1.000000,,2013-03-05 12:32:00,
2013-03-05 07:42:00,23.0,19.0,-100.00,SE,144,0.0,2.0,86,0.00,,,0.07,1.000000,,2013-03-05 12:42:00,
2013-03-05 07:53:00,23.0,19.0,-100.00,SE,144,0.0,2.0,86,0.00,,,0.07,1.000000,,2013-03-05 12:53:00,
2013-03-05 08:02:00,23.0,19.0,-100.00,SE,144,0.0,2.0,86,0.00,,,0.07,1.000000,,2013-03-05 13:02:00,
2013-03-05 08:10:00,27.0,22.0,-100.00,SW,216,1.0,2.0,82,0.00,,,0.07,11.000000,,2013-03-05 13:10:00,
2013-03-05 08:42:00,27.0,22.0,-100.00,SW,216,1.0,2.0,82,0.00,,,0.07,11.000000,,2013-03-05 13:42:00,
2013-03-05 08:52:00,27.0,22.0,-100.00,SW,216,1.0,2.0,82,0.00,,,0.07,11.000000,,2013-03-05 13:52:00,
2013-03-05 09:02:00,27.0,22.0,-100.00,SW,216,1.0,2.0,82,0.00,,,0.07,11.000000,,2013-03-05 14:02:00,
2013-03-05 09:10:00,30.0,23.0,-100.00,West,260,1.0,4.0,75,0.00,,,0.07,19.000000,,2013-03-05 14:10:00,
2013-03-05 09:32:00,30.0,23.0,-100.00,West,260,1.0,4.0,75,0.00,,,0.07,19.000000,,2013-03-05 14:32:00,
2013-03-05 09:42:00,30.0,23.0,-100.00,West,260,1.0,4.0,75,0.00,,,0.07,19.000000,,2013-03-05 14:42:00,
2013-03-05 09:52:00,30.0,23.0,-100.00,West,260,1.0,4.0,75,0.00,,,0.07,19.000000,,2013-03-05 14:52:00,
2013-03-05 10:02:00,30.0,23.0,-100.00,West,260,1.0,4.0,75,0.00,,,0.07,19.000000,,2013-03-05 15:02:00,
2013-03-05 10:10:00,35.0,25.0,-100.00,East,89,2.0,6.0,67,0.01,,,0.08,35.000000,,2013-03-05 15:10:00,
2013-03-05 10:32:00,35.0,25.0,-100.00,East,89,2.0,6.0,67,0.01,,,0.08,35.000000,,2013-03-05 15:32:00,
2013-03-05 10:42:00,35.0,25.0,-100.00,East,89,2.0,6.0,67,0.01,,,0.08,35.000000,,2013-03-05 15:42:00,
2013-03-05 10:52:00,35.0,25.0,-100.00,East,89,2.0,6.0,67,0.01,,,0.08,35.000000,,2013-03-05 15:52:00,
2013-03-05 11:02:00,35.0,25.0,-100.00,East,89,2.0,6.0,67,0.01,,,0.08,35.000000,,2013-03-05 16:02:00,
2013-03-05 11:10:00,36.0,24.0,-100.00,SE,137,2.0,5.0,62,0.02,,,0.10,45.000000,,2013-03-05 16:10:00,
2013-03-05 11:32:00,36.0,24.0,-100.00,SE,137,2.0,5.0,62,0.02,,,0.10,45.000000,,2013-03-05 16:32:00,
2013-03-05 11:42:00,36.0,24.0,-100.00,SE,137,2.0,5.0,62,0.02,,,0.10,45.000000,,2013-03-05 16:42:00,
2013-03-05 11:52:00,36.0,24.0,-100.00,SE,137,2.0,5.0,62,0.02,,,0.10,45.000000,,2013-03-05 16:52:00,
2013-03-05 12:01:00,36.0,24.0,-100.00,SE,137,2.0,5.0,62,0.02,,,0.10,45.000000,,2013-03-05 17:01:00,
2013-03-05 12:10:00,38.0,25.0,-100.00,NW,321,2.0,7.0,60,0.00,,,0.07,58.000000,,2013-03-05 17:10:00,
2013-03-05 12:32:00,38.0,25.0,-100.00,NW,321,2.0,7.0,60,0.00,,,0.07,58.000000,,2013-03-05 17:32:00,
2013-03-05 12:42:00,38.0,25.0,-100.00,NW,321,2.0,7.0,60,0.00,,,0.07,58.000000,,2013-03-05 17:42:00,
2013-03-05 12:53:00,38.0,25.0,-100.00,NW,321,2.0,7.0,60,0.00,,,0.07,58.000000,,2013-03-05 17:53:00,
2013-03-05 13:02:00,38.0,25.0,-100.00,NW,321,2.0,7.0,60,0.00,,,0.07,58.000000,,2013-03-05 18:02:00,
2013-03-05 13:10:00,44.0,30.0,-100.00,SW,226,2.0,5.0,57,0.00,,,0.03,74.000000,,2013-03-05 18:10:00,
2013-03-05 13:32:00,44.0,30.0,-100.00,SW,226,2.0,5.0,57,0.00,,,0.03,74.000000,,2013-03-05 18:32:00,
2013-03-05 13:42:00,44.0,30.0,-100.00,SW,226,2.0,5.0,57,0.00,,,0.03,74.000000,,2013-03-05 18:42:00,
2013-03-05 13:53:00,44.0,30.0,-100.00,SW,226,2.0,5.0,57,0.00,,,0.03,74.000000,,2013-03-05 18:53:00,
2013-03-05 14:01:00,44.0,30.0,-100.00,SW,226,2.0,5.0,57,0.00,,,0.03,74.000000,,2013-03-05 19:01:00,
2013-03-05 14:10:00,42.0,29.0,-100.00,North,353,2.0,5.0,60,0.00,,,0.03,101.000000,,2013-03-05 19:10:00,
2013-03-05 14:32:00,42.0,29.0,-100.00,North,353,2.0,5.0,60,0.00,,,0.03,101.000000,,2013-03-05 19:32:00,
2013-03-05 14:42:00,42.0,29.0,-100.00,North,353,2.0,5.0,60,0.00,,,0.03,101.000000,,2013-03-05 19:42:00,
2013-03-05 14:52:00,42.0,29.0,-100.00,North,353,2.0,5.0,60,0.00,,,0.03,101.000000,,2013-03-05 19:52:00,
2013-03-05 15:01:00,42.0,29.0,-100.00,North,353,2.0,5.0,60,0.00,,,0.03,101.000000,,2013-03-05 20:01:00,
2013-03-05 15:10:00,42.0,28.0,-100.00,North,349,2.0,6.0,58,0.00,,,0.03,166.000000,,2013-03-05 20:10:00,
2013-03-05 15:42:00,42.0,28.0,-100.00,North,349,2.0,6.0,58,0.00,,,0.03,166.000000,,2013-03-05 20:42:00,
2013-03-05 15:52:00,42.0,28.0,-100.00,North,349,2.0,6.0,58,0.00,,,0.03,166.000000,,2013-03-05 20:52:00,
2013-03-05 16:02:00,42.0,28.0,-100.00,North,349,2.0,6.0,58,0.00,,,0.03,166.000000,,2013-03-05 21:02:00,
2013-03-05 16:10:00,39.0,26.0,-100.00,NNW,348,2.0,5.0,60,0.00,,,0.03,111.000000,,2013-03-05 21:10:00,
2013-03-05 16:32:00,39.0,26.0,-100.00,NNW,348,2.0,5.0,60,0.00,,,0.03,111.000000,,2013-03-05 21:32:00,
2013-03-05 16:42:00,39.0,26.0,-100.00,NNW,348,2.0,5.0,60,0.00,,,0.03,111.000000,,2013-03-05 21:42:00,
2013-03-05 16:52:00,39.0,26.0,-100.00,NNW,348,2.0,5.0,60,0.00,,,0.03,111.000000,,2013-03-05 21:52:00,
2013-03-05 17:01:00,39.0,26.0,-100.00,NNW,348,2.0,5.0,60,0.00,,,0.03,111.000000,,2013-03-05 22:01:00,
2013-03-05 17:10:00,37.0,28.0,-100.00,WNW,282,1.0,4.0,70,0.00,,,0.03,46.000000,,2013-03-05 22:10:00,
2013-03-05 17:32:00,37.0,28.0,-100.00,WNW,282,1.0,4.0,70,0.00,,,0.03,46.000000,,2013-03-05 22:32:00,
2013-03-05 17:42:00,37.0,28.0,-100.00,WNW,282,1.0,4.0,70,0.00,,,0.03,46.000000,,2013-03-05 22:42:00,
2013-03-05 17:52:00,37.0,28.0,-100.00,WNW,282,1.0,4.0,70,0.00,,,0.03,46.000000,,2013-03-05 22:52:00,
2013-03-05 18:01:00,37.0,28.0,-100.00,WNW,282,1.0,4.0,70,0.00,,,0.03,46.000000,,2013-03-05 23:01:00,
2013-03-05 18:10:00,33.0,26.0,-100.00,East,101,1.0,5.0,74,0.00,,,0.03,9.000000,,2013-03-05 23:10:00,
2013-03-05 18:32:00,33.0,26.0,-100.00,East,101,1.0,5.0,74,0.00,,,0.03,9.000000,,2013-03-05 23:32:00,
2013-03-05 18:42:00,33.0,26.0,-100.00,East,101,1.0,5.0,74,0.00,,,0.03,9.000000,,2013-03-05 23:42:00,
2013-03-05 18:53:00,33.0,26.0,-100.00,East,101,1.0,5.0,74,0.00,,,0.03,9.000000,,2013-03-05 23:53:00,
2013-03-05 19:02:00,33.0,26.0,-100.00,East,101,1.0,5.0,74,0.00,,,0.03,9.000000,,2013-03-06 00:02:00,
2013-03-05 19:10:00,30.0,26.0,-100.00,East,99,1.0,3.0,86,0.00,,,0.03,0.000000,,2013-03-06 00:10:00,
2013-03-05 19:32:00,30.0,26.0,-100.00,East,99,1.0,3.0,86,0.00,,,0.03,0.000000,,2013-03-06 00:32:00,
2013-03-05 19:42:00,30.0,26.0,-100.00,East,99,1.0,3.0,86,0.00,,,0.03,0.000000,,2013-03-06 00:42:00,
2013-03-05 19:52:00,30.0,26.0,-100.00,East,99,1.0,3.0,86,0.00,,,0.03,0.000000,,2013-03-06 00:52:00,
2013-03-05 20:02:00,30.0,26.0,-100.00,East,99,1.0,3.0,86,0.00,,,0.03,0.000000,,2013-03-06 01:02:00,
2013-03-05 20:10:00,31.0,28.0,-100.00,ESE,111,0.0,3.0,87,0.00,,,-99.99,0.000000,,2013-03-06 01:10:00,
2013-03-05 20:42:00,31.0,28.0,-100.00,ESE,111,0.0,3.0,87,0.00,,,-99.99,0.000000,,2013-03-06 01:42:00,
2013-03-05 20:52:00,31.0,28.0,-100.00,ESE,111,0.0,3.0,87,0.00,,,-99.99,0.000000,,2013-03-06 01:52:00,
2013-03-05 21:01:00,31.0,28.0,-100.00,ESE,111,0.0,3.0,87,0.00,,,-99.99,0.000000,,2013-03-06 02:01:00,
2013-03-05 21:10:00,31.0,28.0,-100.00,WNW,286,2.0,3.0,87,0.00,,,0.03,0.000000,,2013-03-06 02:10:00,
2013-03-05 21:32:00,31.0,28.0,-100.00,WNW,286,2.0,3.0,87,0.00,,,0.03,0.000000,,2013-03-06 02:32:00,
2013-03-05 21:42:00,31.0,28.0,-100.00,WNW,286,2.0,3.0,87,0.00,,,0.03,0.000000,,2013-03-06 02:42:00,
2013-03-05 21:52:00,31.0,28.0,-100.00,WNW,286,2.0,3.0,87,0.00,,,0.03,0.000000,,2013-03-06 02:52:00,
2013-03-05 22:02:00,31.0,28.0,-100.00,WNW,286,2.0,3.0,87,0.00,,,0.03,0.000000,,2013-03-06 03:02:00,
2013-03-05 22:10:00,32.0,28.0,-100.00,West,269,1.0,6.0,84,0.00,,,0.03,0.000000,,2013-03-06 03:10:00,
2013-03-05 22:32:00,32.0,28.0,-100.00,West,269,1.0,6.0,84,0.00,,,0.03,0.000000,,2013-03-06 03:32:00,
2013-03-05 22:42:00,32.0,28.0,-100.00,West,269,1.0,6.0,84,0.00,,,0.03,0.000000,,2013-03-06 03:42:00,
2013-03-05 22:53:00,32.0,28.0,-100.00,West,269,1.0,6.0,84,0.00,,,0.03,0.000000,,2013-03-06 03:53:00,
2013-03-05 23:02:00,32.0,28.0,-100.00,West,269,1.0,6.0,84,0.00,,,0.03,0.000000,,2013-03-06 04:02:00,
2013-03-05 23:10:00,32.0,28.0,-100.00,NNE,29,1.0,4.0,86,0.00,,,0.03,0.000000,,2013-03-06 04:10:00,
2013-03-05 23:32:00,32.0,28.0,-100.00,NNE,29,1.0,4.0,86,0.00,,,0.03,0.000000,,2013-03-06 04:32:00,
2013-03-05 23:42:00,32.0,28.0,-100.00,NNE,29,1.0,4.0,86,0.00,,,0.03,0.000000,,2013-03-06 04:42:00,
2013-03-05 23:52:00,32.0,28.0,-100.00,NNE,29,1.0,4.0,86,0.00,,,0.03,0.000000,,2013-03-06 04:52:00,